Time;durP1;ratioP1;P1;durP2;ratioP2;P2;SDS_P1;SDS_P2;PMS_P1;PMS_P2;Temp;Humidity;BMP_temperature;BMP_pressure;BME280_temperature;BME280_humidity;BME280_pressure;Samples;Min_cycle;Max_cycle;Signal;HPM_P1;HPM_P2
2022/07/06 00:01:38;;;;;;;1.30;0.90;;;15.10;94.80;;;;;;5026628;28;20053;-34
2022/07/06 00:04:04;;;;;;;1.92;1.20;;;15.10;94.80;;;;;;5015910;28;20042;-34
2022/07/06 00:06:29;;;;;;;1.33;1.02;;;15.10;94.80;;;;;;5025592;28;20021;-33
2022/07/06 00:08:55;;;;;;;2.90;1.13;;;15.00;94.90;;;;;;5017382;28;20022;-33
2022/07/06 00:11:21;;;;;;;2.53;0.77;;;15.00;94.80;;;;;;5024151;28;20056;-33
2022/07/06 00:13:47;;;;;;;3.42;0.80;;;14.90;94.90;;;;;;5020047;28;20021;-34
2022/07/06 00:16:13;;;;;;;2.15;0.80;;;14.90;95.00;;;;;;5020277;28;20514;-34
2022/07/06 00:18:38;;;;;;;2.10;1.10;;;14.80;95.10;;;;;;5022128;28;20520;-34
2022/07/06 00:21:04;;;;;;;2.70;0.90;;;14.80;95.20;;;;;;5018887;28;20040;-34
2022/07/06 00:23:29;;;;;;;1.83;1.05;;;14.90;95.30;;;;;;5024055;28;20421;-33
2022/07/06 00:25:55;;;;;;;2.15;1.10;;;14.90;95.30;;;;;;5016175;28;20017;-35
2022/07/06 00:28:20;;;;;;;1.42;0.95;;;14.80;95.30;;;;;;5025469;28;20040;-34
2022/07/06 00:30:46;;;;;;;2.70;1.10;;;14.80;95.40;;;;;;5014253;28;20116;-35
2022/07/06 00:33:12;;;;;;;1.73;1.00;;;14.80;95.50;;;;;;5026314;28;20511;-34
2022/07/06 00:35:37;;;;;;;2.33;1.08;;;14.70;95.60;;;;;;5014004;28;20033;-34
2022/07/06 00:38:03;;;;;;;5.03;1.08;;;14.70;95.70;;;;;;5026477;28;20021;-34
2022/07/06 00:40:29;;;;;;;2.65;0.88;;;14.60;95.70;;;;;;5013728;28;20553;-35
2022/07/06 00:42:56;;;;;;;2.17;0.80;;;14.60;95.90;;;;;;5026803;28;20291;-34
2022/07/06 00:45:21;;;;;;;2.17;0.90;;;14.60;95.90;;;;;;5014474;28;20488;-35
2022/07/06 00:47:47;;;;;;;1.98;1.00;;;14.60;96.00;;;;;;5025239;28;20041;-34
2022/07/06 00:50:18;;;;;;;2.42;1.08;;;14.60;96.00;;;;;;5017713;28;20018;-34
2022/07/06 00:53:05;;;;;;;3.83;1.20;;;14.60;96.10;;;;;;5021968;28;20032;-35
2022/07/06 00:55:33;;;;;;;3.03;1.00;;;14.50;96.20;;;;;;5019587;28;20152;-34
2022/07/06 00:58:02;;;;;;;2.65;1.00;;;14.50;96.20;;;;;;5026037;28;20021;-35
2022/07/06 01:00:28;;;;;;;2.03;0.90;;;14.50;96.30;;;;;;5017760;28;20485;-33
2022/07/06 01:02:54;;;;;;;1.95;0.82;;;14.50;96.30;;;;;;5021589;28;20050;-33
2022/07/06 01:05:20;;;;;;;1.13;0.90;;;14.50;96.40;;;;;;5020416;28;20061;-33
2022/07/06 01:07:47;;;;;;;0.90;0.70;;;14.40;96.40;;;;;;5018414;28;20058;-33
2022/07/06 01:10:15;;;;;;;1.88;0.95;;;14.40;96.40;;;;;;5022941;28;20465;-34
2022/07/06 01:12:43;;;;;;;4.65;1.30;;;14.40;96.40;;;;;;5016074;28;20448;-34
2022/07/06 01:15:11;;;;;;;1.90;0.90;;;14.30;96.50;;;;;;5024962;28;20020;-33
2022/07/06 01:17:39;;;;;;;1.67;0.82;;;14.30;96.70;;;;;;5014562;28;20034;-34
2022/07/06 01:20:19;;;;;;;3.30;0.98;;;14.30;96.70;;;;;;5022841;28;20655;-34
2022/07/06 01:22:47;;;;;;;2.17;0.90;;;14.30;96.80;;;;;;5014577;28;20129;-33
2022/07/06 01:25:13;;;;;;;4.28;1.05;;;14.30;96.80;;;;;;5024620;28;20041;-34
2022/07/06 01:27:40;;;;;;;1.60;1.00;;;14.30;96.90;;;;;;5013900;28;20466;-34
2022/07/06 01:30:17;;;;;;;1.85;0.90;;;14.30;97.00;;;;;;5025720;28;20504;-35
2022/07/06 01:32:43;;;;;;;2.38;1.05;;;14.40;97.00;;;;;;5022560;28;20029;-35
2022/07/06 01:35:12;;;;;;;2.15;1.08;;;14.30;97.00;;;;;;5025480;28;20024;-33
2022/07/06 01:37:37;;;;;;;1.58;0.73;;;14.40;97.00;;;;;;5025864;28;20885;-34
2022/07/06 01:40:05;;;;;;;2.50;1.10;;;14.30;97.10;;;;;;5025269;28;20084;-33
2022/07/06 01:42:31;;;;;;;2.58;0.80;;;14.30;97.20;;;;;;5024782;28;20079;-34
2022/07/06 01:44:57;;;;;;;3.20;0.90;;;14.30;97.20;;;;;;5025851;28;20459;-34
2022/07/06 01:47:23;;;;;;;3.50;1.10;;;14.30;97.20;;;;;;5024695;28;20026;-34
2022/07/06 01:49:49;;;;;;;1.92;0.80;;;14.30;97.30;;;;;;5025932;28;20029;-34
2022/07/06 01:52:14;;;;;;;2.50;0.93;;;14.30;97.30;;;;;;5026096;28;20021;-34
2022/07/06 01:54:40;;;;;;;2.33;0.93;;;14.30;97.40;;;;;;5024797;28;20030;-35
2022/07/06 01:57:05;;;;;;;3.35;1.02;;;14.30;97.50;;;;;;5025553;28;20029;-33
2022/07/06 01:59:31;;;;;;;1.77;0.80;;;14.20;97.50;;;;;;5025255;28;20037;-33
2022/07/06 02:01:57;;;;;;;2.47;0.70;;;14.20;97.60;;;;;;5024513;28;20570;-33
2022/07/06 02:04:22;;;;;;;2.58;0.90;;;14.20;97.60;;;;;;5025634;28;20049;-34
2022/07/06 02:06:47;;;;;;;1.13;0.80;;;14.20;97.60;;;;;;5025396;28;20024;-35
2022/07/06 02:09:13;;;;;;;1.95;0.95;;;14.20;97.70;;;;;;5024243;28;20380;-35
2022/07/06 02:11:39;;;;;;;2.03;0.95;;;14.20;98.00;;;;;;5025950;28;20437;-34
2022/07/06 02:14:04;;;;;;;2.35;1.10;;;14.20;97.80;;;;;;5022218;28;20377;-34
2022/07/06 02:16:30;;;;;;;1.70;1.10;;;14.20;97.90;;;;;;5024667;28;20369;-34
2022/07/06 02:18:55;;;;;;;1.58;0.98;;;14.20;97.90;;;;;;5025639;28;20171;-33
2022/07/06 02:21:21;;;;;;;1.35;0.80;;;14.10;97.90;;;;;;5025309;28;20021;-33
2022/07/06 02:23:47;;;;;;;1.42;0.90;;;14.10;98.00;;;;;;5024397;28;20057;-33
2022/07/06 02:26:12;;;;;;;2.78;0.80;;;14.10;98.00;;;;;;5025744;28;20018;-34
2022/07/06 02:28:38;;;;;;;2.22;0.98;;;14.10;98.10;;;;;;5025069;28;20072;-34
2022/07/06 02:31:03;;;;;;;1.50;0.90;;;14.10;98.20;;;;;;5026515;28;20489;-34
2022/07/06 02:33:29;;;;;;;1.45;0.95;;;14.00;98.20;;;;;;5028531;28;20055;-34
2022/07/06 02:35:54;;;;;;;2.45;1.20;;;14.00;98.20;;;;;;5027939;28;20060;-34
2022/07/06 02:38:20;;;;;;;2.72;1.23;;;13.90;98.30;;;;;;5026100;28;20025;-34
2022/07/06 02:40:45;;;;;;;1.83;1.05;;;13.90;98.30;;;;;;5028855;28;20337;-35
2022/07/06 02:43:11;;;;;;;1.83;0.90;;;13.90;98.40;;;;;;5028481;28;20464;-33
2022/07/06 02:45:37;;;;;;;1.88;0.90;;;13.90;98.50;;;;;;5027080;28;20112;-35
2022/07/06 02:48:02;;;;;;;1.88;1.00;;;13.80;98.50;;;;;;5028849;28;20025;-34
2022/07/06 02:50:28;;;;;;;1.48;0.95;;;13.80;98.60;;;;;;5027185;28;20061;-34
2022/07/06 02:52:54;;;;;;;1.25;0.82;;;13.80;98.60;;;;;;5028864;28;20029;-34
2022/07/06 02:55:20;;;;;;;2.92;1.00;;;13.70;98.60;;;;;;5028427;28;20097;-33
2022/07/06 02:57:46;;;;;;;1.33;0.90;;;13.70;98.70;;;;;;5027577;28;20839;-34
2022/07/06 03:00:12;;;;;;;2.80;0.85;;;13.70;98.80;;;;;;5028847;28;20037;-33
2022/07/06 03:02:38;;;;;;;2.80;1.20;;;13.60;98.80;;;;;;5028678;28;20053;-33
2022/07/06 03:05:04;;;;;;;1.98;1.00;;;13.60;98.80;;;;;;5027930;28;20044;-34
2022/07/06 03:07:29;;;;;;;1.73;1.00;;;13.60;98.80;;;;;;5028911;28;20032;-33
2022/07/06 03:09:55;;;;;;;2.28;1.02;;;13.60;98.90;;;;;;5028528;28;20104;-35
2022/07/06 03:12:20;;;;;;;2.15;0.70;;;13.60;98.90;;;;;;5028153;28;20083;-34
2022/07/06 03:14:46;;;;;;;1.33;0.90;;;13.60;98.90;;;;;;5028008;28;20026;-34
2022/07/06 03:17:12;;;;;;;1.33;0.90;;;13.60;99.00;;;;;;5028275;28;20091;-33
2022/07/06 03:19:38;;;;;;;3.47;0.98;;;13.60;99.00;;;;;;5027488;28;20752;-36
2022/07/06 03:22:04;;;;;;;1.63;0.77;;;13.60;99.00;;;;;;5028052;28;20030;-35
2022/07/06 03:24:29;;;;;;;2.72;1.20;;;13.70;99.10;;;;;;5027484;28;20541;-35
2022/07/06 03:26:55;;;;;;;3.80;0.80;;;13.70;99.00;;;;;;5027821;28;20029;-34
2022/07/06 03:29:20;;;;;;;1.50;0.70;;;13.70;99.00;;;;;;5027687;28;20020;-35
2022/07/06 03:31:46;;;;;;;1.02;0.57;;;13.80;99.00;;;;;;5027769;28;20044;-33
2022/07/06 03:34:12;;;;;;;1.85;0.85;;;13.80;99.00;;;;;;5027351;28;20043;-34
2022/07/06 03:36:37;;;;;;;2.60;0.73;;;13.90;99.00;;;;;;5027398;28;20532;-34
2022/07/06 03:39:03;;;;;;;3.72;1.00;;;13.90;98.90;;;;;;5027186;28;20065;-33
2022/07/06 03:41:29;;;;;;;2.13;0.70;;;14.00;98.90;;;;;;5026795;28;20344;-34
2022/07/06 03:43:54;;;;;;;2.60;0.95;;;14.00;98.90;;;;;;5028018;28;20041;-34
2022/07/06 03:46:20;;;;;;;1.02;0.68;;;14.10;98.90;;;;;;5027543;28;20033;-34
2022/07/06 03:48:45;;;;;;;0.80;0.70;;;14.20;98.90;;;;;;5026876;28;20056;-35
2022/07/06 03:51:11;;;;;;;1.38;0.57;;;14.20;98.80;;;;;;5027452;28;20018;-32
2022/07/06 03:53:37;;;;;;;1.08;0.80;;;14.30;98.80;;;;;;5026836;28;20576;-34
2022/07/06 03:58:46;;;;;;;1.92;0.90;;;14.30;98.80;;;;;;5027157;28;20041;-34
2022/07/06 04:01:12;;;;;;;0.75;0.65;;;14.30;98.80;;;;;;5026560;28;20328;-35
2022/07/06 04:03:38;;;;;;;1.70;0.88;;;14.40;99.00;;;;;;5027567;28;20037;-33
2022/07/06 04:06:06;;;;;;;2.00;0.70;;;14.40;98.80;;;;;;5027179;28;20025;-34
2022/07/06 04:08:32;;;;;;;1.88;0.68;;;14.40;98.80;;;;;;5026254;28;20091;-33
2022/07/06 04:10:58;;;;;;;1.23;0.80;;;14.30;98.80;;;;;;5027498;28;20013;-35
2022/07/06 04:13:25;;;;;;;1.45;0.70;;;14.40;98.90;;;;;;5026809;28;20021;-33
2022/07/06 04:15:51;;;;;;;0.70;0.70;;;14.40;98.90;;;;;;5027048;28;20052;-34
2022/07/06 04:18:16;;;;;;;2.90;0.90;;;14.30;98.90;;;;;;5026892;28;20025;-35
2022/07/06 04:20:42;;;;;;;1.38;0.77;;;14.40;99.00;;;;;;5026879;28;20033;-34
2022/07/06 04:23:07;;;;;;;0.77;0.73;;;14.30;99.10;;;;;;5026356;28;20083;-33
2022/07/06 04:25:33;;;;;;;2.10;0.88;;;14.30;99.10;;;;;;5026287;28;20033;-33
2022/07/06 04:27:59;;;;;;;1.75;0.70;;;14.20;99.10;;;;;;5026920;28;20060;-34
2022/07/06 04:30:24;;;;;;;3.90;0.80;;;14.20;99.20;;;;;;5025491;28;20073;-35
2022/07/06 04:32:50;;;;;;;1.35;0.75;;;14.20;99.30;;;;;;5026735;28;20021;-33
2022/07/06 04:35:16;;;;;;;4.18;0.95;;;14.10;99.40;;;;;;5026493;28;20021;-34
2022/07/06 04:37:41;;;;;;;0.70;0.70;;;14.10;99.40;;;;;;5026036;28;20065;-34
2022/07/06 04:40:07;;;;;;;1.45;0.85;;;14.10;99.40;;;;;;5026906;28;20335;-34
2022/07/06 04:42:33;;;;;;;1.00;0.60;;;14.10;99.50;;;;;;5026186;28;20033;-32
2022/07/06 04:44:58;;;;;;;1.95;0.85;;;14.10;99.50;;;;;;5026089;28;20087;-33
2022/07/06 04:47:24;;;;;;;2.60;0.80;;;14.10;99.60;;;;;;5026084;28;20084;-34
2022/07/06 04:49:49;;;;;;;2.15;0.80;;;14.00;99.60;;;;;;5026551;28;20445;-33
2022/07/06 04:52:15;;;;;;;1.98;0.80;;;14.10;99.60;;;;;;5025881;28;20021;-34
2022/07/06 04:54:41;;;;;;;1.27;0.70;;;14.00;99.60;;;;;;5025940;28;20029;-33
2022/07/06 04:57:06;;;;;;;2.25;0.60;;;14.00;99.60;;;;;;5026266;28;20031;-34
2022/07/06 04:59:32;;;;;;;2.40;0.73;;;14.00;99.60;;;;;;5025321;28;20598;-34
2022/07/06 05:01:57;;;;;;;1.05;0.80;;;14.10;99.60;;;;;;5026200;28;20136;-33
2022/07/06 05:04:24;;;;;;;1.85;0.80;;;14.10;99.70;;;;;;5025240;28;20087;-36
2022/07/06 05:06:50;;;;;;;2.13;1.10;;;14.10;99.70;;;;;;5026785;28;20115;-34
2022/07/06 05:09:15;;;;;;;1.35;0.70;;;14.20;99.70;;;;;;5026271;28;20120;-34
2022/07/06 05:11:41;;;;;;;1.60;0.80;;;14.20;99.70;;;;;;5025101;28;20021;-34
2022/07/06 05:14:07;;;;;;;1.58;0.70;;;14.20;99.80;;;;;;5026015;28;20435;-33
2022/07/06 05:16:32;;;;;;;0.98;0.70;;;14.20;99.80;;;;;;5025897;28;20030;-33
2022/07/06 05:18:58;;;;;;;2.38;1.00;;;14.30;99.90;;;;;;5025217;28;20037;-34
2022/07/06 05:21:24;;;;;;;1.08;0.68;;;14.30;99.90;;;;;;5025758;28;20444;-33
2022/07/06 05:23:50;;;;;;;1.38;0.60;;;14.40;99.90;;;;;;5025808;28;20198;-34
2022/07/06 05:26:15;;;;;;;2.72;0.90;;;14.50;99.90;;;;;;5025348;28;20480;-33
2022/07/06 05:28:41;;;;;;;2.38;0.90;;;14.70;99.90;;;;;;5025714;28;20021;-34
2022/07/06 05:31:06;;;;;;;1.38;0.70;;;14.80;99.80;;;;;;5026382;28;20018;-34
2022/07/06 05:33:32;;;;;;;2.42;0.60;;;14.90;99.70;;;;;;5024466;28;21192;-34
2022/07/06 05:35:58;;;;;;;1.38;0.60;;;15.10;99.60;;;;;;5025760;28;20141;-33
2022/07/06 05:38:24;;;;;;;2.78;0.77;;;15.20;99.60;;;;;;5011746;28;20104;-34
2022/07/06 05:40:50;;;;;;;2.08;0.80;;;15.30;99.50;;;;;;5022493;28;20032;-34
2022/07/06 05:43:15;;;;;;;2.83;0.80;;;15.40;99.50;;;;;;5025583;28;20728;-34
2022/07/06 05:45:41;;;;;;;2.40;0.85;;;15.50;99.40;;;;;;5011362;28;20056;-34
2022/07/06 05:50:54;;;;;;;3.15;0.98;;;15.70;99.30;;;;;;5012578;28;20481;-34
2022/07/06 05:53:19;;;;;;;3.72;0.75;;;15.70;99.20;;;;;;5024091;28;20058;-34
2022/07/06 05:55:46;;;;;;;1.52;0.60;;;15.70;99.10;;;;;;5013437;28;20017;-35
2022/07/06 05:58:11;;;;;;;3.00;0.73;;;15.80;99.20;;;;;;5005518;28;20030;-34
2022/07/06 06:00:37;;;;;;;1.35;0.55;;;15.80;99.20;;;;;;5011467;28;20111;-36
2022/07/06 06:03:02;;;;;;;1.70;0.50;;;15.80;99.20;;;;;;5008382;28;20076;-34
2022/07/06 06:05:28;;;;;;;2.47;0.45;;;15.80;99.20;;;;;;5011964;28;20102;-34
2022/07/06 06:07:53;;;;;;;1.52;0.60;;;15.90;99.10;;;;;;5014524;28;20030;-36
2022/07/06 06:10:21;;;;;;;2.88;0.75;;;15.90;99.10;;;;;;5012071;28;20041;-34
2022/07/06 06:12:47;;;;;;;0.93;0.60;;;16.00;99.00;;;;;;5016650;28;20050;-35
2022/07/06 06:15:12;;;;;;;1.92;0.63;;;16.00;99.00;;;;;;5009657;28;20418;-34
2022/07/06 06:17:38;;;;;;;1.95;0.75;;;16.00;99.10;;;;;;5017178;28;20033;-35
2022/07/06 06:20:06;;;;;;;1.08;0.57;;;15.90;99.10;;;;;;5028258;28;20066;-35
2022/07/06 06:22:55;;;;;;;2.65;0.70;;;15.90;99.20;;;;;;5027590;28;20025;-34
2022/07/06 06:25:28;;;;;;;2.38;0.63;;;15.90;99.20;;;;;;5027898;28;20040;-35
2022/07/06 06:27:54;;;;;;;1.13;0.60;;;15.90;99.30;;;;;;5027929;28;20117;-34
2022/07/06 06:30:20;;;;;;;0.95;0.70;;;15.90;99.30;;;;;;5027242;28;20021;-36
2022/07/06 06:32:45;;;;;;;0.85;0.50;;;15.90;99.30;;;;;;5027945;28;20505;-34
2022/07/06 06:35:11;;;;;;;0.80;0.40;;;15.90;99.30;;;;;;5028671;28;20021;-35
2022/07/06 06:37:37;;;;;;;2.17;0.70;;;16.00;99.30;;;;;;5026444;28;20033;-35
2022/07/06 06:40:04;;;;;;;1.92;0.60;;;16.10;99.30;;;;;;5028299;28;20682;-35
2022/07/06 06:42:30;;;;;;;1.10;0.50;;;16.20;99.30;;;;;;5027295;28;20068;-33
2022/07/06 06:44:56;;;;;;;1.90;0.52;;;16.20;99.20;;;;;;5028676;28;20069;-34
2022/07/06 06:47:21;;;;;;;1.15;0.73;;;16.30;99.20;;;;;;5028629;28;20029;-33
2022/07/06 06:49:47;;;;;;;1.50;0.60;;;16.30;99.10;;;;;;5027205;28;20044;-33
2022/07/06 06:52:13;;;;;;;2.42;0.85;;;16.40;99.10;;;;;;5028655;28;20048;-34
2022/07/06 06:54:38;;;;;;;0.80;0.47;;;16.40;99.00;;;;;;5028598;28;20030;-33
2022/07/06 06:57:04;;;;;;;1.08;0.50;;;16.40;98.90;;;;;;5027715;28;20022;-34
2022/07/06 06:59:30;;;;;;;0.77;0.40;;;16.40;98.80;;;;;;5028434;28;20037;-34
2022/07/06 07:01:55;;;;;;;1.60;0.57;;;16.50;98.80;;;;;;5027976;28;20520;-33
2022/07/06 07:04:21;;;;;;;0.88;0.47;;;16.50;98.70;;;;;;5027279;28;20505;-34
2022/07/06 07:06:46;;;;;;;1.13;0.55;;;16.60;98.70;;;;;;5027957;28;20473;-33
2022/07/06 07:09:12;;;;;;;1.23;0.63;;;16.60;98.70;;;;;;5027623;28;20041;-33
2022/07/06 07:11:37;;;;;;;1.38;0.50;;;16.60;98.60;;;;;;5026108;28;20079;-33
2022/07/06 07:14:04;;;;;;;1.40;0.55;;;16.50;98.40;;;;;;5017024;28;20308;-34
2022/07/06 07:16:29;;;;;;;2.08;0.70;;;16.60;98.50;;;;;;5026871;28;20029;-34
2022/07/06 07:18:55;;;;;;;2.90;0.70;;;16.60;98.40;;;;;;5014099;28;20056;-34
2022/07/06 07:21:21;;;;;;;1.55;0.60;;;16.60;98.40;;;;;;5028280;28;20560;-35
2022/07/06 07:23:46;;;;;;;1.48;0.50;;;16.70;98.40;;;;;;5015011;28;20548;-34
2022/07/06 07:26:12;;;;;;;1.83;0.65;;;16.80;98.10;;;;;;5026783;28;20096;-34
2022/07/06 07:28:37;;;;;;;1.90;0.60;;;16.80;98.10;;;;;;5016614;28;20022;-35
2022/07/06 07:31:04;;;;;;;0.70;0.40;;;16.80;97.90;;;;;;5024993;28;20061;-35
2022/07/06 07:33:30;;;;;;;1.13;0.60;;;16.90;97.60;;;;;;5019406;28;20018;-35
2022/07/06 07:35:55;;;;;;;1.83;0.60;;;16.90;97.60;;;;;;5012037;28;20041;-35
2022/07/06 07:38:21;;;;;;;2.17;0.60;;;16.90;97.20;;;;;;5011514;28;20429;-34
2022/07/06 07:40:47;;;;;;;1.92;0.65;;;16.90;97.30;;;;;;5015028;28;20038;-34
2022/07/06 07:43:12;;;;;;;1.38;0.55;;;17.00;97.10;;;;;;5009172;28;20026;-34
2022/07/06 07:45:38;;;;;;;1.40;0.63;;;17.00;97.10;;;;;;5017952;28;20040;-34
2022/07/06 07:48:04;;;;;;;1.95;0.63;;;17.10;97.10;;;;;;5008587;28;20025;-34
2022/07/06 07:50:29;;;;;;;1.85;0.50;;;17.10;96.80;;;;;;5017527;28;20105;-34
2022/07/06 07:52:55;;;;;;;1.45;0.45;;;17.20;96.70;;;;;;5007221;28;20022;-34
2022/07/06 07:55:21;;;;;;;0.93;0.47;;;17.20;96.40;;;;;;5019574;28;20473;-35
2022/07/06 07:57:46;;;;;;;1.98;0.50;;;17.30;96.30;;;;;;5024451;28;20033;-34
2022/07/06 08:00:13;;;;;;;4.43;0.40;;;17.50;96.30;;;;;;5014139;28;20045;-34
2022/07/06 08:02:38;;;;;;;0.57;0.30;;;17.70;96.20;;;;;;5026340;28;20080;-34
2022/07/06 08:05:04;;;;;;;0.77;0.50;;;17.80;95.60;;;;;;5015378;28;20061;-34
2022/07/06 08:07:30;;;;;;;1.05;0.40;;;17.90;95.30;;;;;;5024883;28;20032;-35
2022/07/06 08:09:55;;;;;;;1.00;0.40;;;18.00;95.10;;;;;;5018784;28;20100;-33
2022/07/06 08:12:21;;;;;;;1.40;0.50;;;18.00;94.90;;;;;;5023290;28;20445;-33
2022/07/06 08:14:46;;;;;;;0.40;0.22;;;18.10;94.70;;;;;;5019507;28;20418;-35
2022/07/06 08:17:11;;;;;;;0.68;0.30;;;18.10;94.10;;;;;;5021141;28;20056;-35
2022/07/06 08:19:37;;;;;;;1.75;0.30;;;18.00;94.30;;;;;;5022800;28;20044;-35
2022/07/06 08:22:06;;;;;;;0.45;0.40;;;18.00;93.90;;;;;;5017780;28;20030;-34
2022/07/06 08:24:34;;;;;;;0.80;0.50;;;18.00;94.10;;;;;;5024696;28;20112;-33
2022/07/06 08:27:00;;;;;;;1.13;0.40;;;18.00;93.30;;;;;;5016027;28;20389;-35
2022/07/06 08:29:28;;;;;;;0.77;0.40;;;18.10;93.70;;;;;;5023778;28;20512;-34
2022/07/06 08:31:54;;;;;;;1.88;0.32;;;18.20;93.60;;;;;;5015289;28;20018;-35
2022/07/06 08:34:19;;;;;;;1.15;0.47;;;18.30;93.50;;;;;;5025802;28;20031;-36
2022/07/06 08:36:45;;;;;;;2.67;0.68;;;18.40;93.40;;;;;;5013713;28;20083;-34
2022/07/06 08:39:10;;;;;;;1.10;0.35;;;18.40;93.20;;;;;;5025616;28;20637;-35
2022/07/06 08:41:38;;;;;;;0.73;0.40;;;18.50;93.10;;;;;;5013434;28;20061;-34
2022/07/06 08:44:05;;;;;;;1.08;0.30;;;18.50;93.10;;;;;;5026237;28;20033;-35
2022/07/06 08:46:31;;;;;;;0.20;0.15;;;18.50;92.40;;;;;;5014423;28;20014;-36
2022/07/06 08:48:57;;;;;;;1.60;0.30;;;18.60;92.50;;;;;;5025969;28;20025;-35
2022/07/06 08:51:25;;;;;;;0.63;0.30;;;18.60;92.40;;;;;;5015440;28;20048;-34
2022/07/06 08:53:51;;;;;;;0.85;0.20;;;18.60;92.20;;;;;;5023899;28;20067;-34
2022/07/06 08:56:19;;;;;;;0.60;0.30;;;18.70;92.00;;;;;;5021985;28;20013;-32
2022/07/06 08:58:44;;;;;;;2.13;0.52;;;18.80;91.60;;;;;;5025925;28;20028;-35
2022/07/06 09:01:11;;;;;;;0.28;0.20;;;18.80;91.30;;;;;;5019251;28;20389;-35
2022/07/06 09:03:39;;;;;;;0.63;0.20;;;18.90;90.90;;;;;;5012277;28;20046;-35
2022/07/06 09:06:07;;;;;;;0.38;0.30;;;18.90;91.00;;;;;;5008886;28;20018;-35
2022/07/06 09:08:33;;;;;;;0.63;0.40;;;19.10;90.70;;;;;;5015220;28;20030;-34
2022/07/06 09:11:01;;;;;;;1.02;0.35;;;19.10;89.60;;;;;;5021009;28;20047;-34
2022/07/06 09:13:27;;;;;;;1.10;0.40;;;19.20;89.00;;;;;;5024972;28;20041;-34
2022/07/06 09:15:53;;;;;;;0.73;0.30;;;19.20;86.00;;;;;;5025176;28;20130;-35
2022/07/06 09:18:24;;;;;;;1.08;0.35;;;19.20;85.40;;;;;;5025436;28;20032;-34
2022/07/06 09:20:49;;;;;;;1.27;0.30;;;19.20;86.10;;;;;;5025918;28;20124;-34
2022/07/06 09:23:17;;;;;;;0.70;0.22;;;19.20;86.80;;;;;;5024997;28;20049;-35
2022/07/06 09:25:46;;;;;;;1.33;0.30;;;19.30;87.10;;;;;;5025314;28;20033;-34
2022/07/06 09:28:12;;;;;;;1.50;0.40;;;19.40;87.10;;;;;;5025084;28;20044;-33
2022/07/06 09:30:40;;;;;;;0.82;0.38;;;19.40;85.70;;;;;;5025247;28;20029;-35
2022/07/06 09:33:08;;;;;;;2.05;0.20;;;19.30;83.90;;;;;;5012827;28;20465;-35
2022/07/06 09:35:38;;;;;;;0.28;0.10;;;19.30;84.90;;;;;;5005558;28;20022;-33
2022/07/06 09:38:14;;;;;;;6.22;0.57;;;19.30;85.20;;;;;;5020330;28;20140;-34
2022/07/06 09:40:44;;;;;;;3.33;0.70;;;19.40;85.60;;;;;;5024882;28;20087;-35
2022/07/06 09:43:15;;;;;;;4.88;0.95;;;19.40;85.40;;;;;;5025178;28;20489;-34
2022/07/06 09:45:55;;;;;;;2.85;0.40;;;19.50;85.20;;;;;;5024797;28;20029;-34
2022/07/06 09:48:26;;;;;;;0.95;0.40;;;19.70;85.00;;;;;;5025534;28;20435;-34
2022/07/06 09:51:02;;;;;;;3.65;0.60;;;19.70;84.80;;;;;;5025795;28;20529;-34
2022/07/06 09:53:28;;;;;;;0.95;0.30;;;19.80;84.20;;;;;;5023751;28;20018;-34
2022/07/06 09:55:55;;;;;;;1.05;0.30;;;19.90;84.20;;;;;;5025314;28;20032;-35
2022/07/06 09:58:22;;;;;;;1.23;0.45;;;19.90;82.80;;;;;;5025373;28;20032;-34
2022/07/06 10:00:49;;;;;;;0.63;0.30;;;19.90;81.90;;;;;;5024265;28;20057;-34
2022/07/06 10:03:16;;;;;;;0.25;0.20;;;19.90;82.50;;;;;;5024140;28;20439;-35
2022/07/06 10:05:46;;;;;;;4.55;0.90;;;20.00;82.70;;;;;;5025464;28;20022;-33
2022/07/06 10:08:13;;;;;;;2.70;0.75;;;20.10;82.30;;;;;;5024662;28;20105;-33
2022/07/06 10:10:40;;;;;;;1.13;0.40;;;20.20;82.60;;;;;;5025556;28;20029;-34
2022/07/06 10:13:07;;;;;;;2.65;0.63;;;20.20;82.40;;;;;;5025006;28;20026;-35
2022/07/06 10:15:34;;;;;;;0.90;0.25;;;20.30;82.70;;;;;;5022675;28;20284;-34
2022/07/06 10:18:01;;;;;;;0.95;0.38;;;20.40;82.80;;;;;;5007990;28;20378;-33
2022/07/06 10:20:32;;;;;;;0.73;0.30;;;20.40;81.60;;;;;;5023767;28;20033;-34
2022/07/06 10:23:00;;;;;;;1.67;0.40;;;20.40;81.50;;;;;;5024788;28;20041;-36
2022/07/06 10:25:26;;;;;;;1.15;0.30;;;20.40;80.80;;;;;;5024379;28;20033;-34
2022/07/06 10:27:53;;;;;;;1.30;0.30;;;20.30;80.50;;;;;;5024555;28;20025;-35
2022/07/06 10:30:20;;;;;;;2.13;0.45;;;20.30;81.30;;;;;;5024502;28;20500;-33
2022/07/06 10:32:49;;;;;;;0.47;0.28;;;20.20;81.20;;;;;;5024726;28;20044;-34
2022/07/06 10:35:17;;;;;;;0.60;0.20;;;20.30;81.30;;;;;;5023879;28;20082;-34
2022/07/06 10:37:42;;;;;;;0.38;0.20;;;20.40;80.60;;;;;;5024955;28;20026;-33
2022/07/06 10:43:02;;;;;;;0.60;0.20;;;20.40;80.50;;;;;;5005108;28;20070;-35
2022/07/06 10:45:28;;;;;;;0.77;0.30;;;20.40;80.40;;;;;;5019789;28;20048;-33
2022/07/06 10:48:11;;;;;;;2.75;0.50;;;20.40;80.10;;;;;;5025288;28;20018;-36
2022/07/06 10:50:37;;;;;;;1.60;0.20;;;20.40;80.70;;;;;;5023808;28;20052;-35
2022/07/06 10:53:10;;;;;;;0.20;0.20;;;20.50;81.10;;;;;;5027979;28;20473;-36
2022/07/06 10:55:37;;;;;;;1.20;0.30;;;20.60;81.40;;;;;;5026647;28;20112;-35
2022/07/06 10:58:04;;;;;;;2.70;0.50;;;20.70;81.40;;;;;;5028243;28;20040;-35
2022/07/06 11:00:55;;;;;;;1.02;0.30;;;20.70;81.30;;;;;;5027872;28;20377;-34
2022/07/06 11:03:34;;;;;;;0.75;0.28;;;20.70;81.60;;;;;;5027381;28;20049;-34
2022/07/06 11:06:01;;;;;;;0.40;0.22;;;20.60;81.70;;;;;;5027486;28;20033;-35
2022/07/06 11:08:43;;;;;;;1.08;0.40;;;20.70;81.80;;;;;;5027542;28;20021;-35
2022/07/06 11:11:19;;;;;;;0.65;0.30;;;20.70;82.30;;;;;;5027280;28;20440;-34
2022/07/06 11:13:57;;;;;;;2.60;0.50;;;20.80;81.80;;;;;;5028278;28;20025;-34
2022/07/06 11:16:26;;;;;;;0.90;0.50;;;20.80;80.40;;;;;;5027560;28;20037;-34
2022/07/06 11:19:11;;;;;;;1.00;0.50;;;20.80;80.90;;;;;;5027389;28;20022;-34
2022/07/06 11:21:41;;;;;;;0.65;0.35;;;20.80;81.10;;;;;;5027823;28;20413;-33
2022/07/06 11:24:09;;;;;;;0.93;0.30;;;20.80;81.10;;;;;;5027411;28;20111;-34
2022/07/06 11:26:36;;;;;;;1.55;0.45;;;20.80;81.00;;;;;;5027615;28;20405;-34
2022/07/06 11:29:05;;;;;;;0.73;0.30;;;20.80;80.00;;;;;;5027724;28;20056;-34
2022/07/06 11:31:33;;;;;;;0.88;0.40;;;20.70;80.40;;;;;;5026899;28;20040;-35
2022/07/06 11:33:59;;;;;;;0.60;0.38;;;20.80;80.50;;;;;;5027656;28;20022;-35
2022/07/06 11:36:24;;;;;;;2.38;0.50;;;20.80;80.50;;;;;;5026574;28;20029;-35
2022/07/06 11:38:50;;;;;;;0.75;0.35;;;21.00;80.10;;;;;;5027362;28;20084;-34
2022/07/06 11:41:17;;;;;;;1.08;0.30;;;21.00;79.20;;;;;;5026669;28;20028;-34
2022/07/06 11:43:45;;;;;;;0.60;0.60;;;21.10;79.50;;;;;;5027058;28;20068;-34
2022/07/06 11:46:30;;;;;;;0.80;0.40;;;21.20;77.60;;;;;;5026796;28;20035;-36
2022/07/06 11:49:02;;;;;;;0.85;0.40;;;21.20;78.30;;;;;;5018329;28;20113;-35
2022/07/06 11:51:29;;;;;;;0.30;0.20;;;21.20;78.80;;;;;;5025188;28;20124;-35
2022/07/06 11:53:59;;;;;;;1.65;0.38;;;21.30;79.20;;;;;;5016049;28;20017;-34
2022/07/06 11:56:26;;;;;;;0.68;0.30;;;21.40;79.20;;;;;;5026378;28;20076;-34
2022/07/06 11:58:53;;;;;;;1.48;0.40;;;21.50;79.20;;;;;;5026912;28;20033;-33
2022/07/06 12:01:23;;;;;;;1.15;0.45;;;21.50;78.70;;;;;;5026259;28;20041;-34
2022/07/06 12:03:49;;;;;;;1.17;0.60;;;21.50;78.30;;;;;;5022944;28;20442;-35
2022/07/06 12:06:21;;;;;;;1.00;0.90;;;21.40;78.60;;;;;;5026410;28;20025;-33
2022/07/06 12:08:49;;;;;;;2.20;0.30;;;21.40;79.10;;;;;;5026730;28;20026;-33
2022/07/06 12:11:31;;;;;;;0.80;0.40;;;21.40;79.30;;;;;;5027130;28;20021;-34
2022/07/06 12:13:59;;;;;;;0.83;0.50;;;21.40;79.70;;;;;;5026433;28;20075;-34
2022/07/06 12:16:34;;;;;;;1.10;0.30;;;21.50;79.90;;;;;;5026899;28;20473;-35
2022/07/06 12:19:01;;;;;;;1.35;0.35;;;21.50;79.90;;;;;;5026600;28;20037;-34
2022/07/06 12:21:27;;;;;;;0.60;0.22;;;21.60;79.90;;;;;;5025939;28;20381;-34
2022/07/06 12:23:54;;;;;;;0.88;0.47;;;21.70;79.90;;;;;;5027028;28;20060;-34
2022/07/06 12:26:29;;;;;;;1.38;0.40;;;21.80;79.90;;;;;;5026773;28;20401;-34
2022/07/06 12:29:10;;;;;;;4.55;0.40;;;21.80;80.00;;;;;;5026184;28;20017;-34
2022/07/06 12:31:35;;;;;;;0.35;0.20;;;22.00;79.90;;;;;;5006756;28;20037;-34
2022/07/06 12:34:01;;;;;;;1.30;0.40;;;22.10;79.80;;;;;;5022736;28;20014;-35
2022/07/06 12:36:27;;;;;;;0.75;0.38;;;22.20;79.70;;;;;;5025265;28;20035;-35
2022/07/06 12:38:53;;;;;;;0.75;0.32;;;22.30;79.50;;;;;;5026853;28;20060;-35
2022/07/06 12:41:31;;;;;;;0.70;0.50;;;22.40;79.40;;;;;;5026028;28;20073;-33
2022/07/06 12:44:02;;;;;;;1.15;0.40;;;22.50;79.40;;;;;;5026011;28;20034;-33
2022/07/06 12:46:36;;;;;;;0.95;0.30;;;22.60;80.00;;;;;;5025689;28;20085;-34
2022/07/06 12:49:11;;;;;;;1.48;0.30;;;22.70;79.30;;;;;;5026024;28;20021;-35
2022/07/06 12:51:54;;;;;;;0.68;0.40;;;22.80;78.60;;;;;;5026258;28;20581;-35
2022/07/06 12:54:21;;;;;;;0.28;0.22;;;22.60;78.60;;;;;;5018186;28;20563;-33
2022/07/06 12:57:26;;;;;;;0.40;0.32;;;22.50;78.70;;;;;;5025037;28;20435;-33